STL weather

St Louis Lambert International Airport
St Louis, Missouri, United States

Public forecast

Using degrees Fahrenheit for public forecast. Weather courtesy of forecast.io.

METAR (pilot weather report)

Retrieved 2017/10/24 05:51 UTC (46 minutes ago):

KSTL 240551Z 29014G21KT 10SM FEW035 BKN049 OVC100 12/04 A2984 RMK AO2 SLP100 60000 T01220039 10161 20122 402110106 58007

TAF (pilot weather forecast)

Retrieved 2017/10/24 06:22 UTC (15 minutes ago):

TAF KSTL 240520Z 2406/2512 29015G25KT P6SM SCT050 BKN100 FM241500 29017G27KT P6SM BKN035 FM250000 29009KT P6SM SCT040 BKN100 FM250600 28006KT P6SM SCT250